createdAt,value
2018-05-29T00:01:09.269Z,65.49
2018-05-29T00:03:38.521Z,65.48
2018-05-29T00:06:07.029Z,65.19
2018-05-29T00:08:36.249Z,65.92
2018-05-29T00:11:05.670Z,66.40
2018-05-29T00:13:34.112Z,66.51
2018-05-29T00:16:04.077Z,66.52
2018-05-29T00:18:32.717Z,65.79
2018-05-29T00:21:01.172Z,66.30
2018-05-29T00:23:29.620Z,67.01
2018-05-29T00:25:58.112Z,68.05
2018-05-29T00:28:26.552Z,68.74
2018-05-29T00:30:55.000Z,68.58
2018-05-29T00:33:23.486Z,68.33
2018-05-29T00:35:51.929Z,67.66
2018-05-29T00:38:21.137Z,67.44
2018-05-29T00:40:49.644Z,66.74
2018-05-29T00:43:18.084Z,67.30
2018-05-29T00:45:46.527Z,67.77
2018-05-29T00:48:15.016Z,67.87
2018-05-29T00:50:43.453Z,67.36
2018-05-29T00:53:12.649Z,68.08
2018-05-29T00:55:41.901Z,68.43
2018-05-29T00:58:10.340Z,68.36
2018-05-29T01:00:38.809Z,68.30
2018-05-29T01:03:08.073Z,67.67
2018-05-29T01:05:36.578Z,67.41
2018-05-29T01:10:39.058Z,66.56
2018-05-29T01:13:08.333Z,66.65
2018-05-29T01:15:36.834Z,66.36
2018-05-29T01:18:05.684Z,66.30
2018-05-29T01:20:34.257Z,66.51
2018-05-29T01:23:02.766Z,67.03
2018-05-29T01:25:31.481Z,67.67
2018-05-29T01:28:00.766Z,68.04
2018-05-29T01:30:29.270Z,68.42
2018-05-29T01:32:58.585Z,68.75
2018-05-29T01:35:27.862Z,68.99
2018-05-29T01:37:56.362Z,68.92
2018-05-29T01:40:25.677Z,69.38
2018-05-29T01:42:54.178Z,70.00
2018-05-29T01:45:22.682Z,70.03
2018-05-29T01:47:51.394Z,69.43
2018-05-29T01:50:20.661Z,69.05
2018-05-29T01:52:49.416Z,68.82
2018-05-29T01:55:17.958Z,68.18
2018-05-29T01:57:46.482Z,67.85
2018-05-29T02:00:15.045Z,67.22
2018-05-29T02:02:45.674Z,67.33
2018-05-29T02:05:14.950Z,67.58
2018-05-29T02:07:43.457Z,68.41
2018-05-29T02:10:12.789Z,68.97
2018-05-29T02:12:41.286Z,69.26
2018-05-29T02:15:09.790Z,69.35
2018-05-29T02:17:38.698Z,69.52
2018-05-29T02:20:07.241Z,69.29
2018-05-29T02:22:35.734Z,67.87
2018-05-29T02:25:04.782Z,66.59
2018-05-29T02:27:34.122Z,66.32
2018-05-29T02:30:02.631Z,67.02
2018-05-29T02:32:31.192Z,67.27
2018-05-29T02:34:59.693Z,67.38
2018-05-29T02:37:28.201Z,67.93
2018-05-29T02:39:57.513Z,68.32
2018-05-29T02:42:26.010Z,67.85
2018-05-29T02:44:54.569Z,67.72
2018-05-29T02:47:24.054Z,67.89
2018-05-29T02:49:53.334Z,68.17
2018-05-29T02:52:21.846Z,68.15
2018-05-29T02:54:51.845Z,68.02
2018-05-29T02:57:21.114Z,67.84
2018-05-29T02:59:49.622Z,67.45
2018-05-29T03:02:18.165Z,66.62
2018-05-29T03:04:46.661Z,65.75
2018-05-29T03:07:15.167Z,65.33
2018-05-29T03:09:44.494Z,65.58
2018-05-29T03:12:12.995Z,65.94
2018-05-29T03:14:41.506Z,65.57
2018-05-29T03:17:11.730Z,65.14
2018-05-29T03:19:40.998Z,65.05
2018-05-29T03:22:10.344Z,64.26
2018-05-29T03:24:39.308Z,64.60
2018-05-29T03:27:08.571Z,65.50
2018-05-29T03:29:37.082Z,65.37
2018-05-29T03:32:05.866Z,66.30
2018-05-29T03:34:34.370Z,67.15
2018-05-29T03:37:02.869Z,68.38
2018-05-29T03:39:31.422Z,68.28
2018-05-29T03:41:59.918Z,68.87
2018-05-29T03:44:28.414Z,67.66
2018-05-29T03:46:57.122Z,68.18
2018-05-29T03:49:26.394Z,68.00
2018-05-29T03:51:54.893Z,67.87
2018-05-29T03:54:23.448Z,67.07
2018-05-29T03:56:51.945Z,67.13
2018-05-29T03:59:20.446Z,67.22
2018-05-29T04:01:52.333Z,67.42
2018-05-29T04:04:21.857Z,66.87
2018-05-29T04:06:50.361Z,66.28
2018-05-29T04:09:18.942Z,65.48
2018-05-29T04:11:47.524Z,63.65
2018-05-29T04:14:16.023Z,62.42
2018-05-29T04:16:44.838Z,61.22
2018-05-29T04:19:14.102Z,61.92
2018-05-29T04:21:42.619Z,62.22
2018-05-29T04:24:11.510Z,61.64
2018-05-29T04:26:40.025Z,61.65
2018-05-29T04:29:08.599Z,61.66
2018-05-29T04:31:37.169Z,61.56
2018-05-29T04:34:05.735Z,61.69
2018-05-29T04:36:35.002Z,61.16
2018-05-29T04:39:03.901Z,60.49
2018-05-29T04:41:32.410Z,60.32
2018-05-29T04:44:00.920Z,59.41
2018-05-29T04:46:29.817Z,58.54
2018-05-29T04:48:58.343Z,58.36
2018-05-29T04:51:26.846Z,57.95
2018-05-29T04:53:55.401Z,57.14
2018-05-29T04:56:23.898Z,57.35
2018-05-29T04:58:53.169Z,56.21
2018-05-29T05:01:22.497Z,54.60
2018-05-29T05:03:51.773Z,53.78
2018-05-29T05:06:20.290Z,54.45
2018-05-29T05:08:49.092Z,52.22
2018-05-29T05:11:18.349Z,51.22
2018-05-29T05:13:46.850Z,47.54
2018-05-29T05:16:17.086Z,46.84
2018-05-29T05:18:46.362Z,46.79
2018-05-29T05:21:14.862Z,47.16
2018-05-29T05:23:43.414Z,47.92
2018-05-29T05:26:11.921Z,48.45
2018-05-29T05:28:40.430Z,49.52
2018-05-29T05:31:10.326Z,46.93
2018-05-29T05:33:39.589Z,45.82
2018-05-29T05:36:08.087Z,45.23
2018-05-29T05:38:36.727Z,44.98
2018-05-29T05:41:05.246Z,46.04
2018-05-29T05:43:33.792Z,47.42
2018-05-29T05:46:02.352Z,48.33
2018-05-29T05:48:31.613Z,49.11
2018-05-29T05:51:00.134Z,48.29
2018-05-29T05:53:29.726Z,48.60
2018-05-29T05:55:59.023Z,48.49
2018-05-29T05:58:28.348Z,48.59
2018-05-29T06:00:57.650Z,49.10
2018-05-29T06:03:26.142Z,48.11
2018-05-29T06:05:54.651Z,47.60
2018-05-29T06:08:23.378Z,46.95
2018-05-29T06:10:52.642Z,47.19
2018-05-29T06:13:21.133Z,46.82
2018-05-29T06:15:49.686Z,47.45
2018-05-29T06:18:18.177Z,46.91
2018-05-29T06:20:46.686Z,47.15
2018-05-29T06:23:15.244Z,48.70
2018-05-29T06:25:43.751Z,48.93
2018-05-29T06:28:12.266Z,48.80
2018-05-29T06:30:41.550Z,47.34
2018-05-29T06:33:10.810Z,46.35
2018-05-29T06:35:39.314Z,46.77
2018-05-29T06:38:08.263Z,47.08
2018-05-29T06:40:36.766Z,47.25
2018-05-29T06:43:05.322Z,47.07
2018-05-29T06:45:33.862Z,46.14
2018-05-29T06:48:02.362Z,44.59
2018-05-29T06:50:32.502Z,44.66
2018-05-29T06:53:01.254Z,44.08
2018-05-29T06:55:31.270Z,44.39
2018-05-29T06:57:59.770Z,45.22
2018-05-29T07:00:29.073Z,43.38
2018-05-29T07:02:58.338Z,43.71
2018-05-29T07:05:27.605Z,43.00
2018-05-29T07:07:56.150Z,43.37
2018-05-29T07:10:25.414Z,43.34
2018-05-29T07:12:53.934Z,42.53
2018-05-29T07:15:23.246Z,41.79
2018-05-29T07:17:51.745Z,40.36
2018-05-29T07:20:20.242Z,39.83
2018-05-29T07:22:48.790Z,39.59
2018-05-29T07:25:17.297Z,38.23
2018-05-29T07:27:45.791Z,37.88
2018-05-29T07:30:14.504Z,39.85
2018-05-29T07:32:43.007Z,37.08
2018-05-29T07:35:11.505Z,33.13
2018-05-29T07:37:40.254Z,33.33
2018-05-29T07:40:08.754Z,31.72
2018-05-29T07:42:38.010Z,30.62
2018-05-29T07:45:06.693Z,29.25
2018-05-29T07:47:35.193Z,29.65
2018-05-29T07:50:03.764Z,28.49
2018-05-29T07:52:32.585Z,31.78
2018-05-29T07:55:01.861Z,26.33
2018-05-29T07:57:30.378Z,30.31
2018-05-29T07:59:59.794Z,28.29
2018-05-29T08:02:28.293Z,27.76
2018-05-29T08:04:56.790Z,28.79
2018-05-29T08:07:25.361Z,28.41
2018-05-29T08:09:53.861Z,27.01
2018-05-29T08:12:22.398Z,25.86
2018-05-29T08:14:51.051Z,25.50
2018-05-29T08:17:19.562Z,28.47
2018-05-29T08:19:48.097Z,27.53
2018-05-29T08:22:16.642Z,25.20
2018-05-29T08:24:45.141Z,26.36
2018-05-29T08:27:13.638Z,26.88
2018-05-29T08:29:42.497Z,26.91
2018-05-29T08:32:11.266Z,27.38
2018-05-29T08:34:40.534Z,27.40
2018-05-29T08:37:09.074Z,25.69
2018-05-29T08:39:37.569Z,27.73
2018-05-29T08:42:06.107Z,26.50
2018-05-29T08:44:35.434Z,26.75
2018-05-29T08:47:03.929Z,28.70
2018-05-29T08:49:32.422Z,26.40
2018-05-29T08:52:00.974Z,27.12
2018-05-29T08:54:29.481Z,26.05
2018-05-29T08:56:57.986Z,25.85
2018-05-29T08:59:26.677Z,24.05
2018-05-29T09:01:55.942Z,25.80
2018-05-29T09:04:24.475Z,24.04
2018-05-29T09:06:53.242Z,24.67
2018-05-29T09:09:22.534Z,24.14
2018-05-29T09:11:51.888Z,24.99
2018-05-29T09:14:21.249Z,24.03
2018-05-29T09:16:49.770Z,25.34
2018-05-29T09:19:18.290Z,25.41
2018-05-29T09:21:47.630Z,27.92
2018-05-29T09:24:16.890Z,26.76
2018-05-29T09:26:45.386Z,26.38
2018-05-29T09:29:14.998Z,28.45
2018-05-29T09:31:44.294Z,23.51
2018-05-29T09:34:13.578Z,22.19
2018-05-29T09:36:42.286Z,20.85
2018-05-29T09:39:11.618Z,22.28
2018-05-29T09:41:40.142Z,20.90
2018-05-29T09:44:08.722Z,20.97
2018-05-29T09:46:37.254Z,22.70
2018-05-29T09:49:05.785Z,23.56
2018-05-29T09:51:34.374Z,23.14
2018-05-29T09:54:03.674Z,22.88
2018-05-29T09:56:32.206Z,21.67
2018-05-29T09:59:00.974Z,22.02
2018-05-29T10:01:29.498Z,24.82
2018-05-29T10:03:58.038Z,24.05
2018-05-29T10:06:27.030Z,21.50
2018-05-29T10:08:55.549Z,21.81
2018-05-29T10:11:24.073Z,22.44
2018-05-29T10:13:53.798Z,21.44
2018-05-29T10:16:23.090Z,23.16
2018-05-29T10:18:52.378Z,23.62
2018-05-29T10:21:20.958Z,22.29
2018-05-29T10:23:49.478Z,24.88
2018-05-29T10:26:18.027Z,24.58
2018-05-29T10:28:47.369Z,23.41
2018-05-29T10:31:15.896Z,23.77
2018-05-29T10:33:44.418Z,23.35
2018-05-29T10:36:12.997Z,21.99
2018-05-29T10:38:41.517Z,23.62
2018-05-29T10:41:10.062Z,24.69
2018-05-29T10:43:38.849Z,25.39
2018-05-29T10:46:07.451Z,24.41
2018-05-29T10:48:35.946Z,22.41
2018-05-29T10:51:04.529Z,20.06
2018-05-29T10:53:33.050Z,19.91
2018-05-29T10:56:01.570Z,19.65
2018-05-29T10:58:30.172Z,20.31
2018-05-29T11:00:58.714Z,19.86
2018-05-29T11:03:28.010Z,18.93
2018-05-29T11:05:57.482Z,18.34
2018-05-29T11:08:25.997Z,18.02
2018-05-29T11:10:55.335Z,19.12
2018-05-29T11:13:23.918Z,19.57
2018-05-29T11:15:52.442Z,19.92
2018-05-29T11:18:20.977Z,19.47
2018-05-29T11:20:49.554Z,19.98
2018-05-29T11:23:18.086Z,20.53
2018-05-29T11:25:47.366Z,19.43
2018-05-29T11:28:17.170Z,20.26
2018-05-29T11:30:45.697Z,20.74
2018-05-29T11:33:15.046Z,21.37
2018-05-29T11:35:43.629Z,21.09
2018-05-29T11:38:12.142Z,18.91
2018-05-29T11:40:40.685Z,19.52
2018-05-29T11:43:09.456Z,18.33
2018-05-29T11:45:38.102Z,18.97
2018-05-29T11:48:06.691Z,19.35
2018-05-29T11:50:36.397Z,19.32
2018-05-29T11:53:06.003Z,20.29
2018-05-29T11:55:34.676Z,23.05
2018-05-29T11:58:04.534Z,19.88
2018-05-29T12:00:33.145Z,19.63
2018-05-29T12:03:01.670Z,19.30
2018-05-29T12:05:30.494Z,19.25
2018-05-29T12:07:59.777Z,19.60
2018-05-29T12:10:29.073Z,19.96
2018-05-29T12:12:57.713Z,21.36
2018-05-29T12:15:26.230Z,19.95
2018-05-29T12:17:55.527Z,18.17
2018-05-29T12:20:24.294Z,18.28
2018-05-29T12:22:52.815Z,19.44
2018-05-29T12:25:22.106Z,20.50
2018-05-29T12:27:50.910Z,21.71
2018-05-29T12:30:20.198Z,20.45
2018-05-29T12:32:49.747Z,20.58
2018-05-29T12:35:18.373Z,19.53
2018-05-29T12:37:46.899Z,21.15
2018-05-29T12:40:15.426Z,19.83
2018-05-29T12:42:44.090Z,21.21
2018-05-29T12:45:12.611Z,19.61
2018-05-29T12:47:41.939Z,21.10
2018-05-29T12:50:10.711Z,20.47
2018-05-29T12:52:40.084Z,20.07
2018-05-29T12:55:08.742Z,20.92
2018-05-29T12:57:37.443Z,21.48
2018-05-29T13:00:06.061Z,20.72
2018-05-29T13:02:35.395Z,20.03
2018-05-29T13:05:04.148Z,20.72
2018-05-29T13:07:32.721Z,20.12
2018-05-29T13:10:01.299Z,19.44
2018-05-29T13:12:29.983Z,19.48
2018-05-29T13:14:58.551Z,19.05
2018-05-29T13:17:27.285Z,19.58
2018-05-29T13:19:55.932Z,18.59
2018-05-29T13:22:24.466Z,20.66
2018-05-29T13:24:52.994Z,21.08
2018-05-29T13:27:22.033Z,20.25
2018-05-29T13:29:50.561Z,21.07
2018-05-29T13:32:19.094Z,19.99
2018-05-29T13:34:47.781Z,22.79
2018-05-29T13:37:16.330Z,20.60
2018-05-29T13:39:44.845Z,20.38
2018-05-29T13:42:14.350Z,23.60
2018-05-29T13:44:42.979Z,21.94
2018-05-29T13:47:11.510Z,20.77
2018-05-29T13:49:42.517Z,22.38
2018-05-29T13:52:11.046Z,22.65
2018-05-29T13:54:39.679Z,23.85
2018-05-29T13:57:08.378Z,21.26
2018-05-29T13:59:36.937Z,22.60
2018-05-29T14:02:05.489Z,22.53
2018-05-29T14:04:34.054Z,22.55
2018-05-29T14:07:02.585Z,23.15
2018-05-29T14:09:31.102Z,23.79
2018-05-29T14:12:00.435Z,22.94
2018-05-29T14:14:29.109Z,22.74
2018-05-29T14:16:57.654Z,22.02
2018-05-29T14:19:26.227Z,22.43
2018-05-29T14:21:55.023Z,23.36
2018-05-29T14:24:24.310Z,23.10
2018-05-29T14:26:52.879Z,22.25
2018-05-29T14:29:21.479Z,22.78
2018-05-29T14:31:50.073Z,24.06
2018-05-29T14:34:19.335Z,21.99
2018-05-29T14:36:48.065Z,22.07
2018-05-29T14:39:17.366Z,22.33
2018-05-29T14:41:46.241Z,23.25
2018-05-29T14:44:14.799Z,23.13
2018-05-29T14:46:43.317Z,25.39
2018-05-29T14:49:12.131Z,25.50
2018-05-29T14:51:41.417Z,24.66
2018-05-29T14:54:10.700Z,26.83
2018-05-29T14:56:40.306Z,26.50
2018-05-29T14:59:09.617Z,25.76
2018-05-29T15:01:38.392Z,25.50
2018-05-29T15:04:06.958Z,26.73
2018-05-29T15:06:35.486Z,25.32
2018-05-29T15:09:04.176Z,26.97
2018-05-29T15:11:33.062Z,25.11
2018-05-29T15:14:02.354Z,27.14
2018-05-29T15:16:31.650Z,25.95
2018-05-29T15:19:01.383Z,26.63
2018-05-29T15:21:31.549Z,27.16
2018-05-29T15:24:00.248Z,27.14
2018-05-29T15:26:28.837Z,28.23
2018-05-29T15:28:57.365Z,27.82
2018-05-29T15:31:26.711Z,28.77
2018-05-29T15:33:55.393Z,28.60
2018-05-29T15:36:24.039Z,27.06
2018-05-29T15:38:52.668Z,29.32
2018-05-29T15:41:21.535Z,28.72
2018-05-29T15:43:50.141Z,29.48
2018-05-29T15:46:18.658Z,29.69
2018-05-29T15:48:47.806Z,28.73
2018-05-29T15:51:16.402Z,31.01
2018-05-29T15:53:45.186Z,30.83
2018-05-29T15:56:13.933Z,30.59
2018-05-29T15:58:42.461Z,31.04
2018-05-29T16:01:11.045Z,31.18
2018-05-29T16:03:40.238Z,32.80
2018-05-29T16:06:08.922Z,32.83
2018-05-29T16:08:37.435Z,33.35
2018-05-29T16:11:06.286Z,33.00
2018-05-29T16:13:34.786Z,33.62
2018-05-29T16:16:03.379Z,33.17
2018-05-29T16:18:32.190Z,33.73
2018-05-29T16:21:01.466Z,33.70
2018-05-29T16:23:29.970Z,33.82
2018-05-29T16:25:59.382Z,34.98
2018-05-29T16:28:28.798Z,35.17
2018-05-29T16:30:57.424Z,35.30
2018-05-29T16:33:26.141Z,36.83
2018-05-29T16:35:54.642Z,36.35
2018-05-29T16:38:23.142Z,37.17
2018-05-29T16:40:51.693Z,36.82
2018-05-29T16:43:20.961Z,37.22
2018-05-29T16:45:49.486Z,37.27
2018-05-29T16:48:18.975Z,37.84
2018-05-29T16:50:48.247Z,38.43
2018-05-29T16:53:16.820Z,38.53
2018-05-29T16:55:45.470Z,39.20
2018-05-29T16:58:14.577Z,39.83
2018-05-29T17:00:43.145Z,39.26
2018-05-29T17:03:11.682Z,39.98
2018-05-29T17:05:40.186Z,40.04
2018-05-29T17:08:08.934Z,40.11
2018-05-29T17:10:37.621Z,40.69
2018-05-29T17:13:06.300Z,41.77
2018-05-29T17:15:35.188Z,41.09
2018-05-29T17:18:04.796Z,41.39
2018-05-29T17:20:33.590Z,41.52
2018-05-29T17:23:03.811Z,41.67
2018-05-29T17:25:34.034Z,42.10
2018-05-29T17:28:03.740Z,42.58
2018-05-29T17:30:32.524Z,43.13
2018-05-29T17:33:01.283Z,43.88
2018-05-29T17:35:29.924Z,44.44
2018-05-29T17:37:58.483Z,44.39
2018-05-29T17:40:27.069Z,44.67
2018-05-29T17:42:55.822Z,44.77
2018-05-29T17:45:24.637Z,45.42
2018-05-29T17:47:53.432Z,45.87
2018-05-29T17:50:22.052Z,46.12
2018-05-29T17:52:51.417Z,46.09
2018-05-29T17:55:20.643Z,46.66
2018-05-29T17:57:49.328Z,46.68
2018-05-29T18:00:17.966Z,46.51
2018-05-29T18:02:46.677Z,48.31
2018-05-29T18:05:15.251Z,48.44
2018-05-29T18:07:43.820Z,48.60
2018-05-29T18:10:12.831Z,48.71
2018-05-29T18:12:42.861Z,50.64
2018-05-29T18:15:11.585Z,50.90
2018-05-29T18:17:40.218Z,51.86
2018-05-29T18:20:08.773Z,51.45
2018-05-29T18:22:37.487Z,53.85
2018-05-29T18:25:06.085Z,51.66
2018-05-29T18:27:34.605Z,51.79
2018-05-29T18:30:03.982Z,51.20
2018-05-29T18:32:33.482Z,51.61
2018-05-29T18:35:02.145Z,51.63
2018-05-29T18:37:30.794Z,51.67
2018-05-29T18:39:59.668Z,53.14
2018-05-29T18:42:29.321Z,51.63
2018-05-29T18:44:57.842Z,52.76
2018-05-29T18:47:26.946Z,52.31
2018-05-29T18:49:56.341Z,49.97
2018-05-29T18:52:25.630Z,50.70
2018-05-29T18:54:54.235Z,49.16
2018-05-29T18:57:23.718Z,48.97
2018-05-29T18:59:53.519Z,47.72
2018-05-29T19:02:23.406Z,46.40
2018-05-29T19:04:52.183Z,45.34
2018-05-29T19:07:20.992Z,46.95
2018-05-29T19:09:49.992Z,50.13
2018-05-29T19:12:19.629Z,51.54
2018-05-29T19:14:49.199Z,54.70
2018-05-29T19:17:18.905Z,55.57
2018-05-29T19:19:48.314Z,55.38
2018-05-29T19:22:17.100Z,54.62
2018-05-29T19:24:45.845Z,54.46
2018-05-29T19:27:14.678Z,53.20
2018-05-29T19:29:43.363Z,52.85
2018-05-29T19:32:12.555Z,54.00
2018-05-29T19:34:41.339Z,52.96
2018-05-29T19:37:10.061Z,54.39
2018-05-29T19:39:39.580Z,53.99
2018-05-29T19:42:09.068Z,55.71
2018-05-29T19:44:39.716Z,55.50
2018-05-29T19:47:08.487Z,56.16
2018-05-29T19:49:37.127Z,55.52
2018-05-29T19:52:05.933Z,56.21
2018-05-29T19:54:34.451Z,55.07
2018-05-29T19:57:03.205Z,53.58
2018-05-29T19:59:31.923Z,53.94
2018-05-29T20:02:00.576Z,53.68
2018-05-29T20:04:29.246Z,54.19
2018-05-29T20:06:58.226Z,53.83
2018-05-29T20:09:26.941Z,55.11
2018-05-29T20:11:55.502Z,54.97
2018-05-29T20:14:24.387Z,55.70
2018-05-29T20:16:52.898Z,57.03
2018-05-29T20:19:21.405Z,57.43
2018-05-29T20:21:49.983Z,57.14
2018-05-29T20:24:18.493Z,54.31
2018-05-29T20:26:47.766Z,52.70
2018-05-29T20:29:16.595Z,52.05
2018-05-29T20:31:45.093Z,51.13
2018-05-29T20:34:13.614Z,52.38
2018-05-29T20:36:42.384Z,52.89
2018-05-29T20:39:10.866Z,54.87
2018-05-29T20:41:39.397Z,55.89
2018-05-29T20:44:07.961Z,57.06
2018-05-29T20:46:37.273Z,58.30
2018-05-29T20:49:06.586Z,58.75
2018-05-29T20:51:35.451Z,59.09
2018-05-29T20:54:04.050Z,59.31
2018-05-29T20:56:33.314Z,59.60
2018-05-29T20:59:02.018Z,60.02
2018-05-29T21:01:30.599Z,61.34
2018-05-29T21:03:59.098Z,62.07
2018-05-29T21:06:28.559Z,62.84
2018-05-29T21:08:57.085Z,63.70
2018-05-29T21:11:26.354Z,65.22
2018-05-29T21:13:54.919Z,66.12
2018-05-29T21:16:23.422Z,66.39
2018-05-29T21:18:51.930Z,66.64
2018-05-29T21:21:21.517Z,68.09
2018-05-29T21:23:50.014Z,68.93
2018-05-29T21:26:19.282Z,68.77
2018-05-29T21:28:48.598Z,68.31
2018-05-29T21:31:17.090Z,68.66
2018-05-29T21:33:46.350Z,68.92
2018-05-29T21:36:15.065Z,69.06
2018-05-29T21:38:43.572Z,68.80
2018-05-29T21:41:12.858Z,68.44
2018-05-29T21:43:42.181Z,68.37
2018-05-29T21:46:10.714Z,68.67
2018-05-29T21:48:39.234Z,68.49
2018-05-29T21:51:08.921Z,68.51
2018-05-29T21:53:37.466Z,68.27
2018-05-29T21:56:05.981Z,68.43
2018-05-29T21:58:34.529Z,68.62
2018-05-29T22:01:03.661Z,69.00
2018-05-29T22:03:32.170Z,68.22
2018-05-29T22:06:00.725Z,68.09
2018-05-29T22:08:29.230Z,68.04
2018-05-29T22:10:57.725Z,68.04
2018-05-29T22:13:26.582Z,68.53
2018-05-29T22:15:55.845Z,68.80
2018-05-29T22:18:24.373Z,68.18
2018-05-29T22:20:54.067Z,67.90
2018-05-29T22:23:22.602Z,67.85
2018-05-29T22:25:51.097Z,67.87
2018-05-29T22:28:19.926Z,68.15
2018-05-29T22:30:49.185Z,68.14
2018-05-29T22:33:17.690Z,68.02
2018-05-29T22:35:46.494Z,68.10
2018-05-29T22:38:15.876Z,67.97
2018-05-29T22:40:44.374Z,68.18
2018-05-29T22:43:13.058Z,68.49
2018-05-29T22:45:42.194Z,68.69
2018-05-29T22:48:10.691Z,68.80
2018-05-29T22:50:39.249Z,69.00
2018-05-29T22:53:07.753Z,68.71
2018-05-29T22:55:36.256Z,68.61
2018-05-29T22:58:04.806Z,68.49
2018-05-29T23:00:33.345Z,67.98
2018-05-29T23:03:01.850Z,67.63
2018-05-29T23:05:31.330Z,66.59
2018-05-29T23:07:59.838Z,67.17
2018-05-29T23:10:28.345Z,66.31
2018-05-29T23:12:56.897Z,65.64
2018-05-29T23:15:26.158Z,63.79
2018-05-29T23:17:54.662Z,63.18
2018-05-29T23:20:23.441Z,63.32
2018-05-29T23:22:51.946Z,63.61
2018-05-29T23:25:21.211Z,63.82
2018-05-29T23:27:49.763Z,65.12
2018-05-29T23:30:18.257Z,65.67
2018-05-29T23:32:46.761Z,66.03
2018-05-29T23:35:15.454Z,66.75
2018-05-29T23:37:43.950Z,67.32
2018-05-29T23:40:13.218Z,67.61
2018-05-29T23:42:41.761Z,68.04
2018-05-29T23:45:10.263Z,68.54
2018-05-29T23:47:38.762Z,68.90
2018-05-29T23:50:07.745Z,68.99
2018-05-29T23:52:36.250Z,68.56
2018-05-29T23:55:04.810Z,68.42
2018-05-29T23:57:33.838Z,68.67
